createdAt,value
2019-02-08T00:00:45.520Z,84.70
2019-02-08T00:03:18.062Z,85.90
2019-02-08T00:05:50.791Z,86.90
2019-02-08T00:08:23.739Z,87.30
2019-02-08T00:10:56.055Z,85.80
2019-02-08T00:13:28.385Z,84.10
2019-02-08T00:16:00.706Z,83.10
2019-02-08T00:18:33.149Z,82.70
2019-02-08T00:21:06.267Z,81.20
2019-02-08T00:23:39.032Z,81.40
2019-02-08T00:26:11.377Z,82.50
2019-02-08T00:28:43.834Z,80.10
2019-02-08T00:31:16.174Z,78.60
2019-02-08T00:33:48.980Z,79.30
2019-02-08T00:36:21.702Z,80.00
2019-02-08T00:38:54.062Z,81.30
2019-02-08T00:41:26.399Z,80.10
2019-02-08T00:43:58.719Z,79.70
2019-02-08T00:46:31.357Z,79.00
2019-02-08T00:49:03.675Z,78.40
2019-02-08T00:51:36.085Z,77.10
2019-02-08T00:54:08.594Z,76.50
2019-02-08T00:56:41.277Z,76.00
2019-02-08T00:59:13.913Z,75.30
2019-02-08T01:01:46.221Z,74.70
2019-02-08T01:04:18.587Z,73.90
2019-02-08T01:06:52.167Z,73.00
2019-02-08T01:09:24.693Z,73.40
2019-02-08T01:11:57.451Z,73.20
2019-02-08T01:14:30.202Z,72.50
2019-02-08T01:17:02.884Z,72.00
2019-02-08T01:19:35.518Z,72.40
2019-02-08T01:22:08.184Z,72.30
2019-02-08T01:24:40.978Z,70.30
2019-02-08T01:27:13.258Z,69.20
2019-02-08T01:29:45.441Z,67.90
2019-02-08T01:32:17.952Z,67.00
2019-02-08T01:34:50.061Z,66.20
2019-02-08T01:37:22.545Z,65.40
2019-02-08T01:39:54.982Z,65.60
2019-02-08T01:42:48.161Z,65.60
2019-02-08T01:45:23.158Z,63.50
2019-02-08T01:47:55.702Z,61.20
2019-02-08T01:50:29.846Z,61.10
2019-02-08T01:53:02.629Z,58.60
2019-02-08T01:55:34.935Z,56.20
2019-02-08T01:58:07.845Z,54.10
2019-02-08T02:00:43.423Z,54.10
2019-02-08T02:03:16.404Z,53.70
2019-02-08T02:06:08.142Z,53.50
2019-02-08T02:08:40.495Z,53.70
2019-02-08T02:11:12.823Z,53.30
2019-02-08T02:13:45.416Z,53.40
2019-02-08T02:16:17.959Z,53.20
2019-02-08T02:18:50.630Z,52.60
2019-02-08T02:21:23.315Z,52.40
2019-02-08T02:23:56.289Z,52.50
2019-02-08T02:26:28.966Z,52.00
2019-02-08T02:29:01.260Z,52.10
2019-02-08T02:31:33.814Z,51.70
2019-02-08T02:34:07.154Z,51.50
2019-02-08T02:36:39.639Z,51.40
2019-02-08T02:39:12.302Z,51.10
2019-02-08T02:41:44.836Z,50.80
2019-02-08T02:44:17.251Z,50.40
2019-02-08T02:46:49.759Z,49.90
2019-02-08T02:49:22.498Z,51.10
2019-02-08T02:51:55.117Z,48.90
2019-02-08T02:54:27.705Z,49.40
2019-02-08T02:57:00.243Z,48.40
2019-02-08T02:59:32.860Z,48.90
2019-02-08T03:02:05.902Z,49.20
2019-02-08T03:04:38.519Z,48.00
2019-02-08T03:07:11.335Z,48.90
2019-02-08T03:09:44.349Z,47.30
2019-02-08T03:12:16.833Z,47.40
2019-02-08T03:14:49.575Z,46.30
2019-02-08T03:17:22.054Z,45.60
2019-02-08T03:19:54.782Z,45.50
2019-02-08T03:22:27.938Z,46.00
2019-02-08T03:25:01.112Z,45.50
2019-02-08T03:27:33.674Z,44.00
2019-02-08T03:30:08.724Z,42.40
2019-02-08T03:32:41.318Z,43.30
2019-02-08T03:35:15.766Z,42.30
2019-02-08T03:37:48.552Z,42.50
2019-02-08T03:40:23.246Z,41.70
2019-02-08T03:42:56.219Z,41.10
2019-02-08T03:45:30.709Z,39.20
2019-02-08T03:48:03.546Z,40.30
2019-02-08T03:50:37.105Z,40.80
2019-02-08T03:53:10.354Z,39.10
2019-02-08T03:55:43.102Z,40.10
2019-02-08T03:58:27.870Z,38.30
2019-02-08T04:01:01.961Z,38.80
2019-02-08T04:03:35.637Z,38.10
2019-02-08T04:06:08.671Z,36.20
2019-02-08T04:08:41.137Z,36.10
2019-02-08T04:11:14.063Z,34.30
2019-02-08T04:13:46.656Z,33.10
2019-02-08T04:16:19.707Z,33.00
2019-02-08T04:18:51.971Z,32.30
2019-02-08T04:21:25.163Z,32.60
2019-02-08T04:23:57.550Z,30.90
2019-02-08T04:26:30.381Z,32.50
2019-02-08T04:29:03.799Z,30.80
2019-02-08T04:31:48.804Z,30.90
2019-02-08T04:34:21.494Z,30.70
2019-02-08T04:36:57.931Z,29.50
2019-02-08T04:39:30.578Z,30.80
2019-02-08T04:42:03.149Z,30.40
2019-02-08T04:44:35.500Z,29.00
2019-02-08T04:47:08.406Z,30.80
2019-02-08T04:49:41.185Z,29.80
2019-02-08T04:52:13.763Z,29.40
2019-02-08T04:54:46.166Z,29.60
2019-02-08T04:57:20.012Z,29.30
2019-02-08T04:59:52.525Z,28.40
2019-02-08T05:02:25.312Z,26.30
2019-02-08T05:04:57.805Z,26.60
2019-02-08T05:07:30.217Z,28.30
2019-02-08T05:10:02.971Z,28.30
2019-02-08T05:12:35.716Z,27.00
2019-02-08T05:15:09.557Z,26.90
2019-02-08T05:17:42.007Z,27.10
2019-02-08T05:20:17.676Z,26.90
2019-02-08T05:22:50.335Z,25.80
2019-02-08T05:25:23.311Z,27.40
2019-02-08T05:27:55.835Z,26.40
2019-02-08T05:30:31.120Z,24.90
2019-02-08T05:33:06.292Z,24.60
2019-02-08T05:35:39.338Z,24.80
2019-02-08T05:38:11.745Z,24.80
2019-02-08T05:40:44.325Z,24.90
2019-02-08T05:43:16.697Z,24.50
2019-02-08T05:45:49.375Z,23.40
2019-02-08T05:48:21.867Z,22.30
2019-02-08T05:50:54.618Z,21.50
2019-02-08T05:53:27.121Z,21.30
2019-02-08T05:55:59.877Z,22.50
2019-02-08T05:58:32.265Z,23.00
2019-02-08T06:01:04.954Z,21.90
2019-02-08T06:03:37.211Z,22.60
2019-02-08T06:06:09.745Z,22.50
2019-02-08T06:08:42.053Z,22.40
2019-02-08T06:11:14.282Z,21.90
2019-02-08T06:13:46.575Z,20.50
2019-02-08T06:16:19.008Z,19.70
2019-02-08T06:18:51.317Z,20.20
2019-02-08T06:21:24.434Z,20.00
2019-02-08T06:23:57.395Z,19.60
2019-02-08T06:26:30.384Z,19.90
2019-02-08T06:29:02.931Z,20.10
2019-02-08T06:31:35.934Z,19.50
2019-02-08T06:34:09.073Z,20.60
2019-02-08T06:36:41.633Z,19.20
2019-02-08T06:39:14.374Z,19.10
2019-02-08T06:41:46.951Z,19.40
2019-02-08T06:44:19.324Z,19.30
2019-02-08T06:46:51.926Z,19.50
2019-02-08T06:49:24.606Z,19.20
2019-02-08T06:51:57.034Z,19.70
2019-02-08T06:54:29.790Z,18.50
2019-02-08T06:57:03.614Z,19.40
2019-02-08T06:59:37.492Z,17.70
2019-02-08T07:02:11.669Z,17.90
2019-02-08T07:04:46.831Z,17.20
2019-02-08T07:07:20.946Z,19.40
2019-02-08T07:09:54.776Z,18.70
2019-02-08T07:12:28.625Z,18.90
2019-02-08T07:15:02.343Z,18.20
2019-02-08T07:17:35.705Z,18.60
2019-02-08T07:20:11.808Z,19.70
2019-02-08T07:22:45.260Z,18.60
2019-02-08T07:25:19.258Z,18.60
2019-02-08T07:27:52.736Z,19.50
2019-02-08T07:30:29.191Z,16.80
2019-02-08T07:33:03.310Z,17.60
2019-02-08T07:35:37.516Z,17.10
2019-02-08T07:38:11.626Z,19.10
2019-02-08T07:40:56.810Z,20.20
2019-02-08T07:43:30.923Z,19.40
2019-02-08T07:46:07.171Z,18.20
2019-02-08T07:48:41.747Z,18.90
2019-02-08T07:51:15.943Z,19.10
2019-02-08T07:53:49.394Z,19.20
2019-02-08T07:56:24.153Z,18.00
2019-02-08T07:58:58.318Z,17.40
2019-02-08T08:01:32.244Z,17.40
2019-02-08T08:04:06.900Z,19.70
2019-02-08T08:06:41.224Z,18.60
2019-02-08T08:09:15.117Z,17.90
2019-02-08T08:11:49.445Z,18.70
2019-02-08T08:14:23.459Z,17.40
2019-02-08T08:16:57.594Z,17.60
2019-02-08T08:19:31.478Z,18.30
2019-02-08T08:22:05.792Z,17.60
2019-02-08T08:24:39.600Z,18.70
2019-02-08T08:27:13.519Z,18.10
2019-02-08T08:29:48.240Z,18.70
2019-02-08T08:32:24.166Z,18.50
2019-02-08T08:34:58.590Z,19.10
2019-02-08T08:37:33.347Z,18.50
2019-02-08T08:40:07.781Z,18.20
2019-02-08T08:42:42.601Z,18.90
2019-02-08T08:45:17.294Z,19.20
2019-02-08T08:47:53.069Z,18.50
2019-02-08T08:50:27.794Z,18.30
2019-02-08T08:53:03.165Z,18.30
2019-02-08T08:55:42.154Z,18.20
2019-02-08T08:58:15.973Z,18.90
2019-02-08T09:00:50.707Z,17.40
2019-02-08T09:03:25.454Z,18.20
2019-02-08T09:06:08.096Z,18.00
2019-02-08T09:08:37.017Z,17.90
2019-02-08T09:11:11.878Z,18.10
2019-02-08T09:13:46.620Z,18.20
2019-02-08T09:16:21.512Z,19.60
2019-02-08T09:18:56.568Z,18.70
2019-02-08T09:21:31.296Z,19.20
2019-02-08T09:24:06.200Z,19.20
2019-02-08T09:26:41.269Z,19.80
2019-02-08T09:29:17.332Z,19.60
2019-02-08T09:31:51.961Z,18.80
2019-02-08T09:34:27.177Z,19.50
2019-02-08T09:37:01.692Z,19.50
2019-02-08T09:39:36.955Z,19.80
2019-02-08T09:42:11.987Z,19.80
2019-02-08T09:44:47.053Z,21.30
2019-02-08T09:47:22.362Z,20.30
2019-02-08T09:49:57.400Z,20.30
2019-02-08T09:52:32.742Z,20.10
2019-02-08T09:55:08.621Z,20.60
2019-02-08T09:57:44.510Z,21.10
2019-02-08T10:00:19.165Z,21.50
2019-02-08T10:02:53.983Z,22.00
2019-02-08T10:05:28.777Z,22.10
2019-02-08T10:08:03.767Z,22.40
2019-02-08T10:10:38.615Z,22.90
2019-02-08T10:13:13.735Z,23.10
2019-02-08T10:15:48.546Z,23.50
2019-02-08T10:18:23.228Z,23.40
2019-02-08T10:20:57.799Z,23.60
2019-02-08T10:23:32.687Z,23.90
2019-02-08T10:26:07.683Z,24.40
2019-02-08T10:28:42.540Z,24.50
2019-02-08T10:31:17.226Z,25.00
2019-02-08T10:33:52.127Z,25.30
2019-02-08T10:36:26.678Z,25.40
2019-02-08T10:39:01.556Z,25.80
2019-02-08T10:41:37.892Z,26.70
2019-02-08T10:44:13.344Z,27.00
2019-02-08T10:46:47.834Z,27.50
2019-02-08T10:49:22.526Z,27.20
2019-02-08T10:52:15.136Z,28.20
2019-02-08T10:54:49.967Z,29.60
2019-02-08T10:57:24.628Z,29.40
2019-02-08T10:59:59.731Z,29.90
2019-02-08T11:02:34.972Z,31.40
2019-02-08T11:05:09.922Z,31.60
2019-02-08T11:07:44.823Z,32.20
2019-02-08T11:10:19.404Z,32.10
2019-02-08T11:12:54.603Z,32.40
2019-02-08T11:15:29.636Z,32.20
2019-02-08T11:18:05.286Z,32.70
2019-02-08T11:20:37.711Z,33.30
2019-02-08T11:23:10.956Z,34.10
2019-02-08T11:25:44.457Z,34.10
2019-02-08T11:28:21.426Z,35.00
2019-02-08T11:30:53.925Z,35.20
2019-02-08T11:33:26.249Z,35.20
2019-02-08T11:35:58.852Z,35.20
2019-02-08T11:38:31.715Z,36.10
2019-02-08T11:41:05.138Z,37.20
2019-02-08T11:43:37.654Z,38.00
2019-02-08T11:46:10.266Z,38.80
2019-02-08T11:48:42.764Z,39.20
2019-02-08T11:51:15.272Z,38.60
2019-02-08T11:53:47.653Z,38.10
2019-02-08T11:56:20.358Z,38.50
2019-02-08T11:58:52.581Z,39.40
2019-02-08T12:01:25.244Z,40.30
2019-02-08T12:03:57.605Z,39.90
2019-02-08T12:06:30.502Z,39.30
2019-02-08T12:09:02.760Z,39.70
2019-02-08T12:11:36.341Z,40.80
2019-02-08T12:14:09.852Z,40.70
2019-02-08T12:16:42.290Z,40.60
2019-02-08T12:19:14.687Z,40.60
2019-02-08T12:21:46.977Z,40.60
2019-02-08T12:24:19.299Z,40.60
2019-02-08T12:26:51.731Z,40.90
2019-02-08T12:29:24.106Z,41.60
2019-02-08T12:31:57.717Z,42.70
2019-02-08T12:34:30.285Z,42.90
2019-02-08T12:37:02.921Z,42.90
2019-02-08T12:39:35.285Z,42.70
2019-02-08T12:42:07.825Z,43.40
2019-02-08T12:44:40.573Z,43.30
2019-02-08T12:47:13.369Z,43.70
2019-02-08T12:49:45.526Z,45.00
2019-02-08T12:52:17.952Z,45.80
2019-02-08T12:54:50.681Z,45.20
2019-02-08T12:57:24.822Z,46.50
2019-02-08T12:59:57.177Z,45.80
2019-02-08T13:02:29.755Z,45.70
2019-02-08T13:05:02.406Z,46.60
2019-02-08T13:07:34.748Z,46.90
2019-02-08T13:10:09.555Z,46.90
2019-02-08T13:12:42.404Z,47.40
2019-02-08T13:15:16.808Z,47.80
2019-02-08T13:17:49.189Z,47.10
2019-02-08T13:20:23.472Z,47.70
2019-02-08T13:22:56.059Z,47.00
2019-02-08T13:25:28.275Z,46.80
2019-02-08T13:28:01.235Z,47.40
2019-02-08T13:30:34.931Z,47.50
2019-02-08T13:33:07.774Z,47.30
2019-02-08T13:35:40.021Z,48.10
2019-02-08T13:38:25.137Z,48.00
2019-02-08T13:40:57.685Z,48.30
2019-02-08T13:43:30.155Z,48.50
2019-02-08T13:46:02.460Z,48.30
2019-02-08T13:48:36.280Z,48.70
2019-02-08T13:51:08.678Z,49.40
2019-02-08T13:53:41.032Z,50.10
2019-02-08T13:56:13.448Z,49.70
2019-02-08T13:58:46.153Z,50.20
2019-02-08T14:01:20.263Z,50.30
2019-02-08T14:03:52.571Z,50.30
2019-02-08T14:06:24.963Z,50.00
2019-02-08T14:08:57.904Z,50.30
2019-02-08T14:11:30.519Z,50.90
2019-02-08T14:14:03.138Z,49.30
2019-02-08T14:16:35.752Z,50.70
2019-02-08T14:19:27.426Z,50.80
2019-02-08T14:21:59.908Z,51.60
2019-02-08T14:24:33.003Z,53.60
2019-02-08T14:27:08.563Z,52.90
2019-02-08T14:29:39.024Z,54.20
2019-02-08T14:32:23.606Z,54.00
2019-02-08T14:34:56.147Z,54.10
2019-02-08T14:37:29.445Z,54.70
2019-02-08T14:40:01.760Z,55.10
2019-02-08T14:42:35.326Z,54.80
2019-02-08T14:45:10.510Z,54.60
2019-02-08T14:47:42.821Z,55.20
2019-02-08T14:50:17.938Z,55.40
2019-02-08T14:52:51.326Z,55.20
2019-02-08T14:55:23.756Z,55.30
2019-02-08T14:57:58.933Z,55.80
2019-02-08T15:00:31.438Z,55.90
2019-02-08T15:03:16.310Z,56.10
2019-02-08T15:05:48.574Z,56.00
2019-02-08T15:08:20.836Z,56.40
2019-02-08T15:10:54.225Z,55.80
2019-02-08T15:13:26.512Z,57.10
2019-02-08T15:15:59.219Z,57.60
2019-02-08T15:18:31.473Z,56.80
2019-02-08T15:21:04.108Z,57.10
2019-02-08T15:23:36.480Z,57.50
2019-02-08T15:26:09.065Z,57.50
2019-02-08T15:28:41.337Z,57.20
2019-02-08T15:31:14.115Z,57.00
2019-02-08T15:33:46.452Z,58.00
2019-02-08T15:36:18.873Z,57.50
2019-02-08T15:38:51.702Z,57.90
2019-02-08T15:41:24.399Z,58.00
2019-02-08T15:43:56.891Z,58.30
2019-02-08T15:46:29.324Z,59.00
2019-02-08T15:49:02.150Z,59.40
2019-02-08T15:51:34.675Z,58.80
2019-02-08T15:54:07.428Z,58.80
2019-02-08T15:56:39.877Z,59.30
2019-02-08T15:59:12.263Z,59.60
2019-02-08T16:01:44.692Z,59.60
2019-02-08T16:04:17.017Z,60.00
2019-02-08T16:06:49.467Z,60.50
2019-02-08T16:09:21.930Z,59.40
2019-02-08T16:11:54.277Z,58.10
2019-02-08T16:14:26.520Z,56.90
2019-02-08T16:16:58.822Z,56.00
2019-02-08T16:19:31.135Z,55.40
2019-02-08T16:22:04.072Z,55.70
2019-02-08T16:24:36.340Z,54.90
2019-02-08T16:27:08.916Z,55.60
2019-02-08T16:29:40.998Z,54.70
2019-02-08T16:32:13.478Z,54.30
2019-02-08T16:34:45.819Z,54.10
2019-02-08T16:37:18.557Z,54.30
2019-02-08T16:39:50.951Z,54.50
2019-02-08T16:42:37.066Z,55.10
2019-02-08T16:45:12.161Z,55.30
2019-02-08T16:47:44.573Z,56.30
2019-02-08T16:50:19.877Z,56.40
2019-02-08T16:52:52.968Z,56.80
2019-02-08T16:55:25.791Z,55.80
2019-02-08T16:57:58.121Z,56.40
2019-02-08T17:00:32.788Z,58.20
2019-02-08T17:03:07.146Z,58.20
2019-02-08T17:05:39.529Z,59.10
2019-02-08T17:08:12.298Z,59.20
2019-02-08T17:10:44.595Z,58.60
2019-02-08T17:13:17.021Z,59.00
2019-02-08T17:15:49.324Z,59.90
2019-02-08T17:18:21.917Z,60.70
2019-02-08T17:20:54.574Z,61.10
2019-02-08T17:23:27.230Z,60.40
2019-02-08T17:25:59.494Z,61.60
2019-02-08T17:28:31.782Z,61.60
2019-02-08T17:31:04.024Z,62.40
2019-02-08T17:33:36.585Z,61.70
2019-02-08T17:36:08.785Z,60.70
2019-02-08T17:38:41.335Z,61.30
2019-02-08T17:41:13.556Z,62.20
2019-02-08T17:43:46.606Z,62.20
2019-02-08T17:46:19.230Z,62.30
2019-02-08T17:48:51.780Z,63.40
2019-02-08T17:51:24.449Z,63.20
2019-02-08T17:53:56.958Z,63.80
2019-02-08T17:56:29.632Z,62.70
2019-02-08T17:59:02.231Z,64.90
2019-02-08T18:01:34.994Z,66.10
2019-02-08T18:04:07.386Z,67.20
2019-02-08T18:06:39.823Z,67.90
2019-02-08T18:09:13.033Z,66.90
2019-02-08T18:11:45.374Z,67.00
2019-02-08T18:14:18.405Z,68.90
2019-02-08T18:16:50.892Z,67.50
2019-02-08T18:19:23.379Z,66.60
2019-02-08T18:21:55.733Z,65.00
2019-02-08T18:24:28.222Z,65.00
2019-02-08T18:27:00.795Z,65.70
2019-02-08T18:29:33.641Z,66.80
2019-02-08T18:32:06.017Z,68.00
2019-02-08T18:34:38.610Z,66.70
2019-02-08T18:37:11.202Z,66.60
2019-02-08T18:39:43.566Z,67.80
2019-02-08T18:42:16.174Z,68.20
2019-02-08T18:44:48.438Z,68.80
2019-02-08T18:47:22.643Z,68.20
2019-02-08T18:49:55.843Z,69.10
2019-02-08T18:52:28.202Z,67.90
2019-02-08T18:55:00.768Z,66.90
2019-02-08T18:57:33.157Z,67.30
2019-02-08T19:00:06.997Z,68.10
2019-02-08T19:02:39.382Z,69.80
2019-02-08T19:05:13.258Z,70.10
2019-02-08T19:07:45.739Z,68.50
2019-02-08T19:10:20.601Z,68.00
2019-02-08T19:12:53.671Z,68.40
2019-02-08T19:15:27.173Z,69.60
2019-02-08T19:17:59.519Z,68.80
2019-02-08T19:20:32.355Z,68.10
2019-02-08T19:23:04.683Z,69.00
2019-02-08T19:25:39.308Z,70.30
2019-02-08T19:28:12.693Z,69.70
2019-02-08T19:30:46.311Z,70.20
2019-02-08T19:33:19.891Z,70.60
2019-02-08T19:35:52.158Z,70.20
2019-02-08T19:38:24.489Z,69.60
2019-02-08T19:40:56.619Z,68.50
2019-02-08T19:43:28.976Z,68.30
2019-02-08T19:46:01.472Z,67.60
2019-02-08T19:48:34.631Z,68.90
2019-02-08T19:51:07.216Z,68.80
2019-02-08T19:53:39.847Z,67.70
2019-02-08T19:56:12.173Z,66.40
2019-02-08T19:58:44.581Z,64.90
2019-02-08T20:01:16.809Z,63.00
2019-02-08T20:03:49.255Z,63.20
2019-02-08T20:06:21.594Z,63.40
2019-02-08T20:08:54.491Z,63.10
2019-02-08T20:11:26.804Z,62.10
2019-02-08T20:13:59.482Z,63.00
2019-02-08T20:16:31.905Z,65.20
2019-02-08T20:19:04.538Z,63.70
2019-02-08T20:21:36.921Z,66.10
2019-02-08T20:24:09.329Z,66.90
2019-02-08T20:26:41.645Z,66.30
2019-02-08T20:29:14.067Z,66.60
2019-02-08T20:31:46.459Z,68.50
2019-02-08T20:34:19.082Z,68.90
2019-02-08T20:36:51.435Z,69.20
2019-02-08T20:39:24.098Z,68.80
2019-02-08T20:41:56.345Z,68.90
2019-02-08T20:44:28.782Z,70.00
2019-02-08T20:47:01.181Z,70.00
2019-02-08T20:49:33.731Z,69.90
2019-02-08T20:52:06.102Z,70.00
2019-02-08T20:54:38.519Z,70.20
2019-02-08T20:57:10.900Z,70.50
2019-02-08T20:59:43.490Z,70.70
2019-02-08T21:02:15.892Z,71.00
2019-02-08T21:04:48.505Z,71.80
2019-02-08T21:07:20.868Z,71.80
2019-02-08T21:09:53.150Z,72.10
2019-02-08T21:12:25.989Z,71.80
2019-02-08T21:14:58.322Z,72.20
2019-02-08T21:17:33.421Z,72.80
2019-02-08T21:20:08.741Z,72.20
2019-02-08T21:22:41.177Z,71.70
2019-02-08T21:25:16.460Z,71.70
2019-02-08T21:27:48.793Z,71.10
2019-02-08T21:30:21.354Z,71.00
2019-02-08T21:32:53.787Z,71.30
2019-02-08T21:35:26.634Z,70.30
2019-02-08T21:37:59.104Z,69.80
2019-02-08T21:40:32.520Z,71.40
2019-02-08T21:43:04.993Z,72.10
2019-02-08T21:45:39.314Z,71.60
2019-02-08T21:48:13.294Z,73.20
2019-02-08T21:50:46.030Z,73.30
2019-02-08T21:53:18.419Z,73.50
2019-02-08T21:55:51.227Z,74.30
2019-02-08T21:58:23.582Z,75.70
2019-02-08T22:00:55.874Z,76.70
2019-02-08T22:03:28.402Z,76.70
2019-02-08T22:06:02.107Z,76.30
2019-02-08T22:08:34.676Z,76.40
2019-02-08T22:11:07.125Z,75.80
2019-02-08T22:13:40.005Z,75.70
2019-02-08T22:16:12.446Z,75.50
2019-02-08T22:18:45.284Z,75.40
2019-02-08T22:21:17.881Z,76.00
2019-02-08T22:23:50.462Z,76.60
2019-02-08T22:26:22.947Z,76.30
2019-02-08T22:28:55.357Z,76.30
2019-02-08T22:31:27.988Z,76.20
2019-02-08T22:34:00.594Z,76.20
2019-02-08T22:36:33.021Z,77.10
2019-02-08T22:39:06.445Z,76.20
2019-02-08T22:41:39.624Z,76.90
2019-02-08T22:44:12.051Z,76.70
2019-02-08T22:46:44.578Z,75.60
2019-02-08T22:49:17.102Z,75.30
2019-02-08T22:51:49.546Z,74.60
2019-02-08T22:54:22.535Z,74.50
2019-02-08T22:56:55.171Z,74.60
2019-02-08T22:59:28.249Z,75.50
2019-02-08T23:02:01.097Z,75.30
2019-02-08T23:04:33.385Z,75.10
2019-02-08T23:07:06.749Z,75.70
2019-02-08T23:09:38.961Z,75.80
2019-02-08T23:12:11.760Z,75.80
2019-02-08T23:14:44.072Z,75.70
2019-02-08T23:17:16.637Z,75.80
2019-02-08T23:19:48.868Z,75.60
2019-02-08T23:22:21.635Z,75.30
2019-02-08T23:24:54.056Z,75.70
2019-02-08T23:27:26.581Z,77.10
2019-02-08T23:29:59.165Z,77.10
2019-02-08T23:32:31.501Z,76.40
2019-02-08T23:35:03.732Z,76.60
2019-02-08T23:37:36.842Z,76.70
2019-02-08T23:40:11.476Z,77.60
2019-02-08T23:42:44.661Z,76.60
2019-02-08T23:45:19.594Z,75.90
2019-02-08T23:47:52.129Z,75.00
2019-02-08T23:50:25.408Z,74.60
2019-02-08T23:52:58.069Z,74.50
2019-02-08T23:55:30.920Z,73.80
2019-02-08T23:58:03.367Z,73.30
